Vargem Bonita, Brazil
Current Conditions -  °F | °C
As of 10:00 PM on Wednesday 22 Oct 2014 (Local Time) from SBCH Reporting Station
Clear Clear  
Wind Chill: 72°   Ceiling: Unl
Heat Index: 72°   Visibility: 6mi
Dew Point: 57°   Wind: 18mph
Humidity: 60%   Direction: 140°SE
Pressure: 30.09"   Gusts: NA
Location:  27.01°S, 51.74°W
Report Text: SBCH 230000Z 14016KT CAVOK 22/14 Q1019
Loading
Personal Weather Stations






























Interactive Weather Map
Tropical Storm Tracking
New forecast layout! Learn more

10-Day Weather Forecast

Advertisements
Track Severe Weather on mobile